Terminal Aerodrome Forecast
Issued by NWS Huntsville, AL

Home | Current Version | Previous Version | Text Only | Print | Product List | Glossary On
Versions: 1 2 3 4 5 6 7 8 9 10 11 12 13 14
000
FTUS44 KHUN 262331
TAFMSL
TAF
KMSL 262331Z 2700/2724 VRB02KT P6SM SCT250
     FM271500 17006KT P6SM SCT040 BKN120 PROB30 2718/2720 4SM TSRA
      BKN040CB
     FM272000 19007KT P6SM VCTS BKN035CB
      TEMPO 2720/2724 5SM TSRA BKN035CB=

USA.gov is the U.S. government's official web portal to all federal, state and local government web resources and services.